createdAt,value
2023-04-15T00:00:11.216Z,1.13
2023-04-15T00:02:42.333Z,1.80
2023-04-15T00:05:10.916Z,2.05
2023-04-15T00:07:39.015Z,1.50
2023-04-15T00:10:08.273Z,2.22
2023-04-15T00:12:36.540Z,1.90
2023-04-15T00:15:06.774Z,1.40
2023-04-15T00:17:35.011Z,1.38
2023-04-15T00:22:32.508Z,1.65
2023-04-15T00:25:00.478Z,1.17
2023-04-15T00:27:28.444Z,1.60
2023-04-15T00:29:57.312Z,1.17
2023-04-15T00:32:26.964Z,1.60
2023-04-15T00:34:55.145Z,1.42
2023-04-15T00:37:23.199Z,1.63
2023-04-15T00:39:52.909Z,1.35
2023-04-15T00:42:21.790Z,1.55
2023-04-15T00:44:50.046Z,1.17
2023-04-15T00:47:19.401Z,1.42
2023-04-15T00:49:49.040Z,1.48
2023-04-15T00:52:17.466Z,0.93
2023-04-15T00:54:45.495Z,1.45
2023-04-15T00:57:13.422Z,1.42
2023-04-15T00:59:41.610Z,0.70
2023-04-15T01:02:09.921Z,1.40
2023-04-15T01:07:07.466Z,1.48
2023-04-15T01:09:35.587Z,0.90
2023-04-15T01:12:04.228Z,0.98
2023-04-15T01:17:00.883Z,1.15
2023-04-15T01:21:57.812Z,0.90
2023-04-15T01:24:29.028Z,0.80
2023-04-15T01:26:58.520Z,1.02
2023-04-15T01:29:27.508Z,0.70
2023-04-15T01:31:57.599Z,0.60
2023-04-15T01:34:27.777Z,1.05
2023-04-15T01:36:56.008Z,1.05
2023-04-15T01:39:24.071Z,0.70
2023-04-15T01:41:52.360Z,1.23
2023-04-15T01:44:21.734Z,1.55
2023-04-15T01:46:50.242Z,0.88
2023-04-15T01:49:19.014Z,0.90
2023-04-15T01:51:47.023Z,1.63
2023-04-15T01:54:14.986Z,0.88
2023-04-15T01:56:43.303Z,1.02
2023-04-15T02:01:41.053Z,0.77
2023-04-15T02:04:16.510Z,1.27
2023-04-15T02:06:44.737Z,1.00
2023-04-15T02:09:13.459Z,1.80
2023-04-15T02:11:41.537Z,1.08
2023-04-15T02:14:09.615Z,1.95
2023-04-15T02:16:37.764Z,2.47
2023-04-15T02:19:07.939Z,0.93
2023-04-15T02:21:38.849Z,1.08
2023-04-15T02:24:07.458Z,0.90
2023-04-15T02:26:35.476Z,1.20
2023-04-15T02:29:03.414Z,0.93
2023-04-15T02:31:34.199Z,0.73
2023-04-15T02:34:04.403Z,1.30
2023-04-15T02:36:34.653Z,1.20
2023-04-15T02:39:03.044Z,1.20
2023-04-15T02:41:31.469Z,1.02
2023-04-15T02:43:59.887Z,1.98
2023-04-15T02:46:30.251Z,1.48
2023-04-15T02:49:00.362Z,1.48
2023-04-15T02:51:33.178Z,1.38
2023-04-15T02:54:01.652Z,1.73
2023-04-15T02:58:59.219Z,1.27
2023-04-15T03:01:27.483Z,3.17
2023-04-15T03:03:55.784Z,1.95
2023-04-15T03:06:24.862Z,1.95
2023-04-15T03:08:54.502Z,2.13
2023-04-15T03:11:22.754Z,2.13
2023-04-15T03:13:50.743Z,2.08
2023-04-15T03:16:28.620Z,1.90
2023-04-15T03:18:56.918Z,2.20
2023-04-15T03:21:26.723Z,1.75
2023-04-15T03:23:58.191Z,1.75
2023-04-15T03:26:29.348Z,1.83
2023-04-15T03:29:01.463Z,1.88
2023-04-15T03:31:30.067Z,1.90
2023-04-15T03:33:58.099Z,1.50
2023-04-15T03:36:26.368Z,1.50
2023-04-15T03:38:54.311Z,1.73
2023-04-15T03:41:23.714Z,1.38
2023-04-15T03:43:52.159Z,4.20
2023-04-15T03:46:20.435Z,1.38
2023-04-15T03:48:48.517Z,1.50
2023-04-15T03:51:16.667Z,1.30
2023-04-15T03:53:44.620Z,0.95
2023-04-15T03:56:12.821Z,0.73
2023-04-15T03:58:42.166Z,0.93
2023-04-15T04:01:10.277Z,2.92
2023-04-15T04:03:38.450Z,1.00
2023-04-15T04:06:06.797Z,2.65
2023-04-15T04:08:34.824Z,1.27
2023-04-15T04:11:02.954Z,1.40
2023-04-15T04:13:31.169Z,1.65
2023-04-15T04:16:00.760Z,1.23
2023-04-15T04:18:28.708Z,1.17
2023-04-15T04:20:56.733Z,1.20
2023-04-15T04:23:24.878Z,1.27
2023-04-15T04:25:52.824Z,1.52
2023-04-15T04:28:21.737Z,1.90
2023-04-15T04:30:49.854Z,2.55
2023-04-15T04:33:19.221Z,1.83
2023-04-15T04:35:47.162Z,2.78
2023-04-15T04:38:15.576Z,2.85
2023-04-15T04:40:43.727Z,1.70
2023-04-15T04:43:11.762Z,1.75
2023-04-15T04:45:39.649Z,2.92
2023-04-15T04:48:08.750Z,2.67
2023-04-15T04:50:38.254Z,2.47
2023-04-15T04:53:06.567Z,2.72
2023-04-15T04:55:36.915Z,3.05
2023-04-15T04:58:04.913Z,5.15
2023-04-15T05:00:33.146Z,2.67
2023-04-15T05:03:01.555Z,2.28
2023-04-15T05:05:29.730Z,3.88
2023-04-15T05:07:59.033Z,2.72
2023-04-15T05:10:27.219Z,2.97
2023-04-15T05:12:55.145Z,5.18
2023-04-15T05:15:23.313Z,3.45
2023-04-15T05:17:51.652Z,5.28
2023-04-15T05:22:48.156Z,3.28
2023-04-15T05:25:17.944Z,3.15
2023-04-15T05:27:46.300Z,4.50
2023-04-15T05:32:42.335Z,5.82
2023-04-15T05:35:10.732Z,4.40
2023-04-15T05:40:08.014Z,2.80
2023-04-15T05:42:37.975Z,2.25
2023-04-15T05:45:09.114Z,3.90
2023-04-15T05:47:37.810Z,2.25
2023-04-15T05:50:06.768Z,4.25
2023-04-15T05:52:34.897Z,2.92
2023-04-15T05:55:02.771Z,2.15
2023-04-15T05:57:30.961Z,3.00
2023-04-15T06:00:00.297Z,2.95
2023-04-15T06:02:28.405Z,5.50
2023-04-15T06:04:56.598Z,3.85
2023-04-15T06:07:25.445Z,2.92
2023-04-15T06:09:53.451Z,3.17
2023-04-15T06:12:21.452Z,2.42
2023-04-15T06:14:49.522Z,4.25
2023-04-15T06:17:19.398Z,4.07
2023-04-15T06:19:47.743Z,3.85
2023-04-15T06:24:44.044Z,3.70
2023-04-15T06:27:11.999Z,4.13
2023-04-15T06:29:40.103Z,4.53
2023-04-15T06:32:08.392Z,3.50
2023-04-15T06:34:37.768Z,6.25
2023-04-15T06:37:06.395Z,3.63
2023-04-15T06:39:34.430Z,3.72
2023-04-15T06:42:03.474Z,3.60
2023-04-15T06:44:33.360Z,6.07
2023-04-15T06:47:02.302Z,3.58
2023-04-15T06:52:00.675Z,4.68
2023-04-15T06:54:28.877Z,4.47
2023-04-15T06:56:56.896Z,4.03
2023-04-15T06:59:25.247Z,3.47
2023-04-15T07:04:21.334Z,3.03
2023-04-15T07:06:50.105Z,4.65
2023-04-15T07:09:19.817Z,4.25
2023-04-15T07:11:47.781Z,3.70
2023-04-15T07:14:16.032Z,5.32
2023-04-15T07:19:11.853Z,2.35
2023-04-15T07:21:41.819Z,2.90
2023-04-15T07:24:10.510Z,4.07
2023-04-15T07:26:40.515Z,4.25
2023-04-15T07:29:08.704Z,3.28
2023-04-15T07:31:37.340Z,3.65
2023-04-15T07:34:05.768Z,3.20
2023-04-15T07:36:33.601Z,4.18
2023-04-15T07:39:03.538Z,3.13
2023-04-15T07:41:32.069Z,3.05
2023-04-15T07:44:01.781Z,4.03
2023-04-15T07:46:30.367Z,2.85
2023-04-15T07:48:58.564Z,2.92
2023-04-15T07:51:26.801Z,4.45
2023-04-15T07:53:55.050Z,4.38
2023-04-15T07:56:23.394Z,5.55
2023-04-15T07:58:51.581Z,6.25
2023-04-15T08:03:49.368Z,5.05
2023-04-15T08:06:17.870Z,2.65
2023-04-15T08:08:46.029Z,2.83
2023-04-15T08:11:14.298Z,2.90
2023-04-15T08:13:42.283Z,2.88
2023-04-15T08:16:21.266Z,2.83
2023-04-15T08:18:50.598Z,2.03
2023-04-15T08:21:19.752Z,1.95
2023-04-15T08:23:49.429Z,3.55
2023-04-15T08:26:17.884Z,5.25
2023-04-15T08:28:47.055Z,3.30
2023-04-15T08:31:16.487Z,3.05
2023-04-15T08:33:46.193Z,2.47
2023-04-15T08:36:14.893Z,4.28
2023-04-15T08:38:43.026Z,3.85
2023-04-15T08:41:24.710Z,6.13
2023-04-15T08:43:58.985Z,5.00
2023-04-15T08:46:27.681Z,5.93
2023-04-15T08:48:59.825Z,4.60
2023-04-15T08:51:28.680Z,5.38
2023-04-15T08:53:57.262Z,6.18
2023-04-15T08:56:27.661Z,5.55
2023-04-15T08:58:56.288Z,4.53
2023-04-15T09:01:24.678Z,5.32
2023-04-15T09:03:54.524Z,6.10
2023-04-15T09:06:24.817Z,5.78
2023-04-15T09:08:53.553Z,5.85
2023-04-15T09:11:23.526Z,4.57
2023-04-15T09:13:51.709Z,7.03
2023-04-15T09:18:48.483Z,5.78
2023-04-15T09:21:19.321Z,7.18
2023-04-15T09:23:59.282Z,4.30
2023-04-15T09:26:34.769Z,4.38
2023-04-15T09:29:07.897Z,5.10
2023-04-15T09:31:36.816Z,5.55
2023-04-15T09:34:05.143Z,4.97
2023-04-15T09:36:52.779Z,5.53
2023-04-15T09:39:22.307Z,5.80
2023-04-15T09:42:06.836Z,7.03
2023-04-15T09:44:35.230Z,9.27
2023-04-15T09:49:31.064Z,4.03
2023-04-15T09:52:06.246Z,7.78
2023-04-15T09:54:38.206Z,4.75
2023-04-15T09:57:07.407Z,6.18
2023-04-15T09:59:35.578Z,4.55
2023-04-15T10:02:06.850Z,5.80
2023-04-15T10:04:38.085Z,7.18
2023-04-15T10:07:07.207Z,6.30
2023-04-15T10:09:37.534Z,6.43
2023-04-15T10:12:06.354Z,6.72
2023-04-15T10:14:38.573Z,5.85
2023-04-15T10:17:08.918Z,6.05
2023-04-15T10:19:38.678Z,6.18
2023-04-15T10:22:07.737Z,6.15
2023-04-15T10:24:37.389Z,5.32
2023-04-15T10:27:07.585Z,7.47
2023-04-15T10:29:36.164Z,7.15
2023-04-15T10:32:04.757Z,4.90
2023-04-15T10:34:33.745Z,5.50
2023-04-15T10:37:03.872Z,6.10
2023-04-15T10:39:45.788Z,4.65
2023-04-15T10:42:15.489Z,4.72
2023-04-15T10:44:45.195Z,4.72
2023-04-15T10:47:15.575Z,7.50
2023-04-15T10:49:48.307Z,5.47
2023-04-15T10:52:17.978Z,4.85
2023-04-15T10:54:47.680Z,4.47
2023-04-15T10:57:18.010Z,5.97
2023-04-15T11:00:11.421Z,5.90
2023-04-15T11:02:44.216Z,3.72
2023-04-15T11:05:13.187Z,4.97
2023-04-15T11:07:48.613Z,6.70
2023-04-15T11:10:53.893Z,5.70
2023-04-15T11:13:29.722Z,5.88
2023-04-15T11:16:02.670Z,5.05
2023-04-15T11:18:33.071Z,5.20
2023-04-15T11:21:04.239Z,7.30
2023-04-15T11:23:35.257Z,3.17
2023-04-15T11:26:05.663Z,5.03
2023-04-15T11:28:36.284Z,4.22
2023-04-15T11:31:10.931Z,4.93
2023-04-15T11:33:47.086Z,3.60
2023-04-15T11:36:15.349Z,5.18
2023-04-15T11:38:48.731Z,5.30
2023-04-15T11:41:21.270Z,7.65
2023-04-15T11:43:51.151Z,5.32
2023-04-15T11:46:19.563Z,7.32
2023-04-15T11:48:48.474Z,8.30
2023-04-15T11:51:16.663Z,3.97
2023-04-15T11:53:46.517Z,6.57
2023-04-15T11:56:20.277Z,5.40
2023-04-15T11:58:50.857Z,3.80
2023-04-15T12:01:20.335Z,6.03
2023-04-15T12:03:50.391Z,5.75
2023-04-15T12:06:20.397Z,5.18
2023-04-15T12:09:09.866Z,5.93
2023-04-15T12:11:43.577Z,4.68
2023-04-15T12:14:13.839Z,5.15
2023-04-15T12:16:49.011Z,7.05
2023-04-15T12:19:22.262Z,5.28
2023-04-15T12:21:50.966Z,5.20
2023-04-15T12:24:23.302Z,8.68
2023-04-15T12:26:53.999Z,7.18
2023-04-15T12:29:27.466Z,5.05
2023-04-15T12:31:58.678Z,6.22
2023-04-15T12:34:31.760Z,7.72
2023-04-15T12:37:01.211Z,5.75
2023-04-15T12:39:31.345Z,5.28
2023-04-15T12:42:00.629Z,6.55
2023-04-15T12:44:29.327Z,4.55
2023-04-15T12:47:00.026Z,4.78
2023-04-15T12:49:28.938Z,5.32
2023-04-15T12:51:59.582Z,5.93
2023-04-15T12:54:28.555Z,6.15
2023-04-15T12:56:57.514Z,7.20
2023-04-15T12:59:25.967Z,6.40
2023-04-15T13:01:54.426Z,4.57
2023-04-15T13:04:24.200Z,5.03
2023-04-15T13:06:52.372Z,5.82
2023-04-15T13:11:48.477Z,6.22
2023-04-15T13:14:16.396Z,6.03
2023-04-15T13:16:44.404Z,7.38
2023-04-15T13:19:12.498Z,6.03
2023-04-15T13:24:10.608Z,6.95
2023-04-15T13:26:38.867Z,11.20
2023-04-15T13:29:06.903Z,5.45
2023-04-15T13:31:34.991Z,5.70
2023-04-15T13:34:03.366Z,6.93
2023-04-15T13:36:31.769Z,7.50
2023-04-15T13:41:29.212Z,5.93
2023-04-15T13:46:26.920Z,5.45
2023-04-15T13:48:55.037Z,6.57
2023-04-15T13:53:52.123Z,6.00
2023-04-15T13:56:21.584Z,5.57
2023-04-15T13:58:49.837Z,5.18
2023-04-15T14:01:17.872Z,7.10
2023-04-15T14:06:14.114Z,5.97
2023-04-15T14:08:42.258Z,3.08
2023-04-15T14:11:10.825Z,3.85
2023-04-15T14:13:40.446Z,3.72
2023-04-15T14:16:08.767Z,5.50
2023-04-15T14:18:37.514Z,6.35
2023-04-15T14:21:06.831Z,2.85
2023-04-15T14:23:34.944Z,3.58
2023-04-15T14:26:03.342Z,3.00
2023-04-15T14:28:32.177Z,2.92
2023-04-15T14:31:01.803Z,2.92
2023-04-15T14:33:29.724Z,2.97
2023-04-15T14:35:58.497Z,4.28
2023-04-15T14:38:26.442Z,2.40
2023-04-15T14:40:54.593Z,2.50
2023-04-15T14:43:22.845Z,2.05
2023-04-15T14:48:21.109Z,2.38
2023-04-15T14:50:49.460Z,1.95
2023-04-15T14:53:17.464Z,2.72
2023-04-15T14:55:46.122Z,3.67
2023-04-15T14:58:14.269Z,3.72
2023-04-15T15:00:44.565Z,3.25
2023-04-15T15:03:13.937Z,2.88
2023-04-15T15:05:45.278Z,2.63
2023-04-15T15:08:14.479Z,1.63
2023-04-15T15:10:48.939Z,2.05
2023-04-15T15:13:18.651Z,2.58
2023-04-15T15:15:49.322Z,2.92
2023-04-15T15:18:18.842Z,3.17
2023-04-15T15:20:49.464Z,1.80
2023-04-15T15:23:17.545Z,1.50
2023-04-15T15:25:46.980Z,1.38
2023-04-15T15:28:15.069Z,3.42
2023-04-15T15:30:43.166Z,2.35
2023-04-15T15:33:11.124Z,1.33
2023-04-15T15:35:39.311Z,1.92
2023-04-15T15:38:12.382Z,2.33
2023-04-15T15:40:40.554Z,1.60
2023-04-15T15:43:08.660Z,1.30
2023-04-15T15:45:37.075Z,0.80
2023-04-15T15:48:06.371Z,1.48
2023-04-15T15:50:35.462Z,3.35
2023-04-15T15:53:03.643Z,1.33
2023-04-15T15:55:33.303Z,1.75
2023-04-15T15:58:01.388Z,3.85
2023-04-15T16:00:29.547Z,1.48
2023-04-15T16:05:29.280Z,2.47
2023-04-15T16:07:57.403Z,1.13
2023-04-15T16:10:25.598Z,1.33
2023-04-15T16:12:55.587Z,1.65
2023-04-15T16:15:23.970Z,0.93
2023-04-15T16:17:52.220Z,1.02
2023-04-15T16:20:20.565Z,1.30
2023-04-15T16:22:48.659Z,0.80
2023-04-15T16:25:16.764Z,5.97
2023-04-15T16:27:57.810Z,1.55
2023-04-15T16:30:32.806Z,2.17
2023-04-15T16:33:00.808Z,0.68
2023-04-15T16:37:56.890Z,1.00
2023-04-15T16:40:26.167Z,1.50
2023-04-15T16:42:54.162Z,1.63
2023-04-15T16:45:22.671Z,1.58
2023-04-15T16:47:52.274Z,4.97
2023-04-15T16:50:20.602Z,0.93
2023-04-15T16:52:48.822Z,2.17
2023-04-15T16:55:16.999Z,1.42
2023-04-15T16:58:00.807Z,1.10
2023-04-15T17:00:31.231Z,4.03
2023-04-15T17:03:01.703Z,3.35
2023-04-15T17:05:30.600Z,2.83
2023-04-15T17:07:58.619Z,0.77
2023-04-15T17:12:56.548Z,1.23
2023-04-15T17:15:25.247Z,2.65
2023-04-15T17:17:53.554Z,1.27
2023-04-15T17:20:23.307Z,3.72
2023-04-15T17:22:51.312Z,1.40
2023-04-15T17:27:47.786Z,3.22
2023-04-15T17:30:16.259Z,1.63
2023-04-15T17:32:44.410Z,1.70
2023-04-15T17:35:12.686Z,3.78
2023-04-15T17:40:10.831Z,1.88
2023-04-15T17:42:38.822Z,2.65
2023-04-15T17:45:08.180Z,2.40
2023-04-15T17:47:36.419Z,4.20
2023-04-15T17:52:32.400Z,1.85
2023-04-15T17:55:01.792Z,4.43
2023-04-15T17:57:29.849Z,2.90
2023-04-15T17:59:58.068Z,2.25
2023-04-15T18:02:26.475Z,6.28
2023-04-15T18:04:54.857Z,3.13
2023-04-15T18:09:51.609Z,1.83
2023-04-15T18:12:20.985Z,5.30
2023-04-15T18:14:49.147Z,9.15
2023-04-15T18:17:17.221Z,3.67
2023-04-15T18:19:46.066Z,3.17
2023-04-15T18:22:14.039Z,2.10
2023-04-15T18:24:43.645Z,4.38
2023-04-15T18:27:13.194Z,4.15
2023-04-15T18:29:43.023Z,2.15
2023-04-15T18:32:11.698Z,2.00
2023-04-15T18:34:40.050Z,2.78
2023-04-15T18:37:08.383Z,3.50
2023-04-15T18:42:04.594Z,9.93
2023-04-15T18:47:02.223Z,1.73
2023-04-15T18:49:31.155Z,2.40
2023-04-15T18:51:59.122Z,3.42
2023-04-15T18:54:27.295Z,2.60
2023-04-15T18:56:55.326Z,1.70
2023-04-15T18:59:29.648Z,4.28
2023-04-15T19:01:59.794Z,2.90
2023-04-15T19:04:29.872Z,2.42
2023-04-15T19:06:59.045Z,3.08
2023-04-15T19:09:27.266Z,3.55
2023-04-15T19:11:56.831Z,1.23
2023-04-15T19:14:24.905Z,3.97
2023-04-15T19:16:53.205Z,3.72
2023-04-15T19:19:21.318Z,2.22
2023-04-15T19:21:50.882Z,4.53
2023-04-15T19:24:19.116Z,4.13
2023-04-15T19:26:49.866Z,3.13
2023-04-15T19:29:18.439Z,4.43
2023-04-15T19:31:46.615Z,4.63
2023-04-15T19:34:14.672Z,1.73
2023-04-15T19:36:43.158Z,6.95
2023-04-15T19:39:12.645Z,2.58
2023-04-15T19:41:40.797Z,2.10
2023-04-15T19:44:08.988Z,3.35
2023-04-15T19:46:37.169Z,4.95
2023-04-15T19:49:05.749Z,2.70
2023-04-15T19:51:34.099Z,6.85
2023-04-15T19:54:02.094Z,2.75
2023-04-15T19:56:33.767Z,3.53
2023-04-15T19:59:03.087Z,2.63
2023-04-15T20:01:31.485Z,2.72
2023-04-15T20:04:00.212Z,5.18
2023-04-15T20:06:28.571Z,4.75
2023-04-15T20:08:56.634Z,3.80
2023-04-15T20:12:48.199Z,3.28
2023-04-15T20:14:18.761Z,3.72
2023-04-15T20:16:46.757Z,3.78
2023-04-15T20:19:14.727Z,2.97
2023-04-15T20:21:42.780Z,6.35
2023-04-15T20:24:10.970Z,3.05
2023-04-15T20:26:39.380Z,3.75
2023-04-15T20:29:07.783Z,2.83
2023-04-15T20:31:37.604Z,1.42
2023-04-15T20:34:05.917Z,3.83
2023-04-15T20:41:30.020Z,1.80
2023-04-15T20:48:57.114Z,3.33
2023-04-15T20:51:25.215Z,2.03
2023-04-15T20:53:53.295Z,1.60
2023-04-15T20:56:21.342Z,2.88
2023-04-15T20:58:49.436Z,3.45
2023-04-15T21:01:17.375Z,5.45
2023-04-15T21:03:45.676Z,2.90
2023-04-15T21:06:15.227Z,4.47
2023-04-15T21:08:43.429Z,2.25
2023-04-15T21:11:11.460Z,5.07
2023-04-15T21:13:39.552Z,1.90
2023-04-15T21:16:07.691Z,1.35
2023-04-15T21:18:35.799Z,3.08
2023-04-15T21:21:03.980Z,1.40
2023-04-15T21:23:35.938Z,1.52
2023-04-15T21:26:04.190Z,2.85
2023-04-15T21:28:32.762Z,2.40
2023-04-15T21:31:00.952Z,2.22
2023-04-15T21:33:28.908Z,3.10
2023-04-15T21:35:56.933Z,3.47
2023-04-15T21:38:25.817Z,6.63
2023-04-15T21:40:55.461Z,8.65
2023-04-15T21:43:25.585Z,4.65
2023-04-15T21:46:22.440Z,4.45
2023-04-15T21:48:43.141Z,4.95
2023-04-15T21:51:11.198Z,4.93
2023-04-15T21:53:39.337Z,7.20
2023-04-15T21:56:09.140Z,6.03
2023-04-15T21:58:37.844Z,6.80
2023-04-15T22:01:06.435Z,2.17
2023-04-15T22:03:36.279Z,5.18
2023-04-15T22:06:05.476Z,1.83
2023-04-15T22:08:44.587Z,2.10
2023-04-15T22:11:23.105Z,1.58
2023-04-15T22:13:51.418Z,3.63
2023-04-15T22:16:19.445Z,2.22
2023-04-15T22:18:47.435Z,3.78
2023-04-15T22:21:15.821Z,2.40
2023-04-15T22:23:47.028Z,2.65
2023-04-15T22:26:15.179Z,1.48
2023-04-15T22:28:44.614Z,4.57
2023-04-15T22:31:13.699Z,2.97
2023-04-15T22:33:41.755Z,5.13
2023-04-15T22:36:09.754Z,1.45
2023-04-15T22:38:37.693Z,2.60
2023-04-15T22:41:06.110Z,2.88
2023-04-15T22:43:34.062Z,1.30
2023-04-15T22:46:03.445Z,6.18
2023-04-15T22:48:31.518Z,1.20
2023-04-15T22:50:59.513Z,1.83
2023-04-15T22:53:27.597Z,1.95
2023-04-15T22:55:55.674Z,2.38
2023-04-15T22:58:24.041Z,3.58
2023-04-15T23:03:21.407Z,1.60
2023-04-15T23:05:49.423Z,3.80
2023-04-15T23:08:17.430Z,5.50
2023-04-15T23:10:45.650Z,7.90
2023-04-15T23:13:13.841Z,2.58
2023-04-15T23:15:41.919Z,2.58
2023-04-15T23:18:10.031Z,1.98
2023-04-15T23:20:39.498Z,2.00
2023-04-15T23:23:07.480Z,1.75
2023-04-15T23:25:35.462Z,1.02
2023-04-15T23:28:03.565Z,0.88
2023-04-15T23:30:31.982Z,5.05
2023-04-15T23:33:00.166Z,0.88
2023-04-15T23:35:28.290Z,1.77
2023-04-15T23:37:57.703Z,4.13
2023-04-15T23:40:25.874Z,3.25
2023-04-15T23:42:53.914Z,2.92
2023-04-15T23:45:21.872Z,2.13
2023-04-15T23:47:49.875Z,5.65
2023-04-15T23:50:17.984Z,3.58
2023-04-15T23:52:46.040Z,1.67
2023-04-15T23:55:15.493Z,3.30
2023-04-15T23:57:43.375Z,5.22
